Terminal Aerodrome Forecast
Issued by NWS Central Illinois

Home | Current Version | Previous Version | Text Only | Print | Product List | Glossary On
Versions: 1 2 3 4 5 6 7 8 9 10 11 12 13 14 15 16 17 18 19
000
FTUS43 KILX 211731
TAFSPI
TAF
KSPI 211731Z 2118/2218 22012G20KT P6SM SCT250
     FM212200 22005KT P6SM BKN250
     FM220600 04004KT P6SM BKN100
     FM220900 04004KT 5SM BR BKN080
     FM221400 02008KT 2SM BR VCSH OVC020=

USA.gov is the U.S. government's official web portal to all federal, state and local government web resources and services.